Historyczne dane pomiarowe

Dodano dane terminowe – wersja testowa.

Dane z okresu 1951-2018

Wersja bazy: 1.27 [2018-11-28, lista zmian], aktualizacja planowana na 2018-12-07

Dane meteo z obszaru Polski uzyskane na podstawie danych udostępnionych przez Instytut Meteorologii i Gospodarki Wodnej – Państwowy Instytut Badawczy.

 

Wybierz Datę:    

       

TemperaturaWilgotnośćWiatrCiśnienieOpadyŚniegCzas trwania zjawisk
 Stacja t tx tn tng RH VA  wxwx mslp ppp RRR   cm mm wxwxwxwxwxwxwx
1978-11-08 4.1 7.0 0.6- 97.3- 6.3 2.0---- 0.0------------
1978-11-09 3.4 4.9 1.7- 93.5- 7.3 2.7---- 0.0------------
1978-11-10 1.7 2.5 0.6- 95.8- 8.0 1.7---- 0.0------------
1978-11-11 1.2 2.6 0.1- 96.3- 8.0 1.3---- 0.0------------
1978-11-12 0.2 2.3 -2.0- 92.3- 7.7 1.3---- 0.0------------
1978-11-13 -0.3 4.8 -2.0- 92.3- 5.0 2.0---- 0.0------------
1978-11-14 1.0 6.2 -2.1- 92.3- 6.3 1.7---- 0.0------------
1978-11-15 4.1 9.9 0.8- 93.3- 6.0 2.7---- 0.0------------
1978-11-16 3.1 8.1 0.1- 86.5- 5.3 2.7---- 0.0------------
1978-11-17 3.8 8.1 0.4- 88.0- 5.7 3.3---- 0.0------------
1978-11-18 7.8 11.4 3.4- 77.8- 6.0 3.0---- 0.0------------
1978-11-19 6.3 12.6 2.9- 75.8- 5.7 2.7---- 0.0------------
1978-11-20 2.5 7.2 -0.6- 84.5- 5.7 3.0---- 0.0------------
1978-11-21 4.0 6.6 2.9- 90.3- 6.0 1.3---- 0.0------------
1978-11-22 4.8 9.1 1.0- 89.3- 8.0 2.0---- 0.0------------
1978-11-23 8.9 10.7 7.8- 78.5- 8.0 3.3---- 0.0------------
1978-11-24 8.8 10.3 7.3- 74.5- 8.0 4.0---- 0.0------------
1978-11-25 4.9 9.4 1.4- 84.3- 5.0 2.0---- 0.0------------
1978-11-26 2.0 5.1 1.0- 95.0- 6.0 1.7---- 0.0------------
1978-11-27 0.4 1.7 -1.1- 94.8- 8.0 1.3---- 7.2------------
1978-11-28 -0.4 0.4 -1.0- 93.0- 8.0 2.0---- 7.6-- 8---------
1978-11-29 -0.2 0.9 -0.7- 97.3- 8.0 4.7---- 35.4-- 17---------
1978-11-30 0.5 2.2 -0.1- 96.3- 8.0 2.3---- 8.3-- 42---------
1978-12-01 0.5 1.6 0.2- 97.5- 8.0 1.3---- 2.0-- 36---------
1978-12-02 0.6 1.1 0.4- 96.5- 8.0 0.7---- 0.4-- 20---------
1978-12-03 -1.5 0.5 -3.4- 93.3- 7.0 2.3---- 0.7-- 19---------
1978-12-04-10.3 -3.0-12.4- 86.0- 5.0 1.7---- 0.0-- 18---------
1978-12-05-12.1 -7.5-16.6- 81.0- 8.0 1.3---- 0.7-- 17---------
1978-12-06 -9.7 -7.1-14.1- 88.5- 5.3 2.3---- 0.2-- 19---------
1978-12-07-16.2-14.0-19.4- 89.0- 6.3 1.7---- 0.0-- 18---------
2254.9 ms

 

Źródłem pochodzenia danych jest Instytut Meteorologii i Gospodarki Wodnej – Państwowy Instytut Badawczy. Dane Instytutu Meteorologii i Gospodarki Wodnej – Państwowego Instytutu Badawczego zostały przetworzone.

Dane źródłowe można odnaleźć na stronie https://dane.imgw.pl